createdAt,value
2023-01-11T00:00:18.905Z,98872.56
2023-01-11T00:01:41.834Z,98875.34
2023-01-11T00:03:06.233Z,98868.69
2023-01-11T00:04:30.520Z,98873.13
2023-01-11T00:05:56.804Z,98869.66
2023-01-11T00:07:19.720Z,98868.94
2023-01-11T00:08:41.447Z,98872.44
2023-01-11T00:10:04.756Z,98872.53
2023-01-11T00:11:26.820Z,98867.44
2023-01-11T00:12:49.895Z,98873.53
2023-01-11T00:14:11.923Z,98870.22
2023-01-11T00:15:36.248Z,98865.13
2023-01-11T00:16:59.748Z,98872.97
2023-01-11T00:18:25.866Z,98877.31
2023-01-11T00:19:47.680Z,98876.47
2023-01-11T00:21:11.642Z,98869.66
2023-01-11T00:22:33.415Z,98862.81
2023-01-11T00:23:56.223Z,98865.47
2023-01-11T00:25:19.068Z,98866.41
2023-01-11T00:26:42.036Z,98868.16
2023-01-11T00:28:04.296Z,98868.31
2023-01-11T00:29:27.880Z,98871.72
2023-01-11T00:30:50.780Z,98863.25
2023-01-11T00:32:13.595Z,98862.50
2023-01-11T00:33:37.680Z,98874.66
2023-01-11T00:34:59.935Z,98871.25
2023-01-11T00:36:22.696Z,98868.75
2023-01-11T00:37:44.504Z,98870.53
2023-01-11T00:39:07.233Z,98869.69
2023-01-11T00:40:48.452Z,98874.03
2023-01-11T00:42:29.404Z,98871.50
2023-01-11T00:44:10.290Z,98872.59
2023-01-11T00:45:50.575Z,98874.34
2023-01-11T00:47:37.712Z,98878.69
2023-01-11T00:49:01.764Z,98884.63
2023-01-11T00:50:23.906Z,98889.69
2023-01-11T00:51:46.683Z,98889.69
2023-01-11T00:53:10.316Z,98885.34
2023-01-11T00:54:32.023Z,98885.34
2023-01-11T00:55:54.949Z,98886.19
2023-01-11T00:57:16.807Z,98885.34
2023-01-11T00:58:39.625Z,98888.03
2023-01-11T01:00:01.991Z,98887.22
2023-01-11T01:01:25.226Z,98887.22
2023-01-11T01:02:48.580Z,98891.56
2023-01-11T01:04:11.821Z,98889.84
2023-01-11T01:05:34.703Z,98892.53
2023-01-11T01:06:56.738Z,98889.03
2023-01-11T01:08:19.745Z,98890.69
2023-01-11T01:09:41.914Z,98886.38
2023-01-11T01:11:04.681Z,98882.09
2023-01-11T01:12:44.873Z,98889.03
2023-01-11T01:14:25.069Z,98878.78
2023-01-11T01:15:47.935Z,98894.38
2023-01-11T01:17:09.750Z,98893.56
2023-01-11T01:18:32.535Z,98885.81
2023-01-11T01:19:55.656Z,98891.88
2023-01-11T01:21:18.390Z,98887.53
2023-01-11T01:22:40.157Z,98889.28
2023-01-11T01:24:02.960Z,98880.63
2023-01-11T01:25:25.805Z,98886.69
2023-01-11T01:26:48.156Z,98892.88
2023-01-11T01:28:10.936Z,98890.31
2023-01-11T01:29:33.745Z,98896.47
2023-01-11T01:30:55.571Z,98897.28
2023-01-11T01:32:18.407Z,98894.78
2023-01-11T01:33:40.507Z,98893.97
2023-01-11T01:35:04.960Z,98892.22
2023-01-11T01:36:26.720Z,98889.72
2023-01-11T01:37:49.504Z,98889.72
2023-01-11T01:39:11.875Z,98890.66
2023-01-11T01:40:34.745Z,98893.22
2023-01-11T01:41:57.620Z,98886.22
2023-01-11T01:43:19.717Z,98886.22
2023-01-11T01:44:59.384Z,98884.56
2023-01-11T01:46:24.723Z,98881.28
2023-01-11T01:47:49.016Z,98875.38
2023-01-11T01:49:14.542Z,98880.56
2023-01-11T01:50:39.382Z,98877.16
2023-01-11T01:52:02.760Z,98882.38
2023-01-11T01:53:29.664Z,98878.13
2023-01-11T01:54:51.909Z,98876.63
2023-01-11T01:56:17.250Z,98876.72
2023-01-11T01:57:40.778Z,98877.66
2023-01-11T01:59:07.786Z,98870.00
2023-01-11T02:00:30.743Z,98877.75
2023-01-11T02:01:52.894Z,98880.22
2023-01-11T02:03:18.496Z,98879.41
2023-01-11T02:04:42.244Z,98880.13
2023-01-11T02:06:07.250Z,98880.97
2023-01-11T02:07:33.175Z,98882.72
2023-01-11T02:08:59.023Z,98877.75
2023-01-11T02:10:23.338Z,98874.31
2023-01-11T02:11:45.711Z,98874.38
2023-01-11T02:13:10.997Z,98878.63
2023-01-11T02:14:35.406Z,98878.63
2023-01-11T02:15:38.470Z,98870.88
2023-01-11T02:16:40.636Z,98872.56
2023-01-11T02:17:43.473Z,98869.78
2023-01-11T02:18:45.450Z,98876.63
2023-01-11T02:19:54.712Z,98869.75
2023-01-11T02:21:12.668Z,98864.47
2023-01-11T02:22:34.011Z,98860.22
2023-01-11T02:23:52.039Z,98856.88
2023-01-11T02:25:10.626Z,98860.38
2023-01-11T02:26:36.008Z,98855.22
2023-01-11T02:27:55.605Z,98856.97
2023-01-11T02:29:01.782Z,98852.72
2023-01-11T02:30:10.881Z,98851.91
2023-01-11T02:31:17.170Z,98855.38
2023-01-11T02:32:26.948Z,98851.97
2023-01-11T02:33:33.216Z,98858.25
2023-01-11T02:34:41.898Z,98855.72
2023-01-11T02:35:52.349Z,98854.06
2023-01-11T02:37:06.812Z,98857.47
2023-01-11T02:38:14.415Z,98854.06
2023-01-11T02:39:22.485Z,98864.38
2023-01-11T02:40:28.065Z,98850.66
2023-01-11T02:41:56.032Z,98861.81
2023-01-11T02:43:22.706Z,98857.56
2023-01-11T02:44:45.337Z,98860.06
2023-01-11T02:45:51.563Z,98855.72
2023-01-11T02:46:57.890Z,98858.25
2023-01-11T02:48:02.524Z,98859.91
2023-01-11T02:49:10.618Z,98859.91
2023-01-11T02:50:18.478Z,98861.47
2023-01-11T02:51:25.079Z,98864.06
2023-01-11T02:52:31.963Z,98867.47
2023-01-11T02:53:38.786Z,98863.13
2023-01-11T02:54:42.486Z,98859.66
2023-01-11T02:55:48.466Z,98861.31
2023-01-11T02:56:53.156Z,98857.91
2023-01-11T02:57:57.458Z,98859.66
2023-01-11T02:59:02.519Z,98858.72
2023-01-11T03:00:06.816Z,98863.06
2023-01-11T03:01:09.572Z,98862.97
2023-01-11T03:02:14.023Z,98858.53
2023-01-11T03:03:17.843Z,98856.88
2023-01-11T03:04:25.486Z,98858.63
2023-01-11T03:05:27.385Z,98861.13
2023-01-11T03:06:33.434Z,98858.53
2023-01-11T03:07:43.755Z,98862.06
2023-01-11T03:09:02.137Z,98869.78
2023-01-11T03:10:11.385Z,98865.56
2023-01-11T03:11:36.683Z,98864.63
2023-01-11T03:12:54.920Z,98874.22
2023-01-11T03:14:05.054Z,98870.00
2023-01-11T03:15:17.350Z,98862.22
2023-01-11T03:16:26.389Z,98869.91
2023-01-11T03:17:39.639Z,98873.31
2023-01-11T03:18:48.024Z,98874.97
2023-01-11T03:19:52.823Z,98877.56
2023-01-11T03:21:00.178Z,98876.81
2023-01-11T03:22:06.721Z,98866.56
2023-01-11T03:23:15.156Z,98874.31
2023-01-11T03:24:27.900Z,98870.03
2023-01-11T03:25:34.196Z,98863.13
2023-01-11T03:26:45.706Z,98867.41
2023-01-11T03:27:52.632Z,98870.88
2023-01-11T03:29:01.804Z,98870.97
2023-01-11T03:30:08.975Z,98871.91
2023-01-11T03:31:16.339Z,98872.72
2023-01-11T03:32:24.339Z,98870.13
2023-01-11T03:33:33.946Z,98870.97
2023-01-11T03:34:38.717Z,98867.56
2023-01-11T03:35:46.103Z,98868.47
2023-01-11T03:36:50.953Z,98859.91
2023-01-11T03:37:56.664Z,98863.41
2023-01-11T03:39:01.162Z,98860.72
2023-01-11T03:40:09.360Z,98860.81
2023-01-11T03:41:14.955Z,98859.06
2023-01-11T03:42:18.587Z,98859.97
2023-01-11T03:43:21.758Z,98856.50
2023-01-11T03:44:26.544Z,98864.16
2023-01-11T03:45:31.055Z,98858.06
2023-01-11T03:46:37.237Z,98860.53
2023-01-11T03:47:39.220Z,98865.81
2023-01-11T03:48:46.062Z,98860.72
2023-01-11T03:49:50.686Z,98859.06
2023-01-11T03:50:54.864Z,98851.31
2023-01-11T03:51:58.251Z,98852.16
2023-01-11T03:53:01.830Z,98849.56
2023-01-11T03:54:06.879Z,98858.06
2023-01-11T03:55:11.542Z,98860.63
2023-01-11T03:56:17.139Z,98856.50
2023-01-11T03:57:22.471Z,98853.91
2023-01-11T03:58:25.822Z,98848.75
2023-01-11T03:59:29.012Z,98851.38
2023-01-11T04:00:32.689Z,98845.38
2023-01-11T04:01:35.518Z,98854.88
2023-01-11T04:02:40.585Z,98853.13
2023-01-11T04:03:43.362Z,98857.56
2023-01-11T04:04:45.195Z,98860.25
2023-01-11T04:05:51.743Z,98854.31
2023-01-11T04:06:53.837Z,98854.41
2023-01-11T04:07:56.750Z,98855.22
2023-01-11T04:08:58.593Z,98859.56
2023-01-11T04:10:01.427Z,98864.63
2023-01-11T04:11:03.954Z,98862.97
2023-01-11T04:12:07.265Z,98853.56
2023-01-11T04:13:09.115Z,98861.38
2023-01-11T04:14:11.958Z,98859.72
2023-01-11T04:15:14.985Z,98858.88
2023-01-11T04:16:19.247Z,98851.13
2023-01-11T04:17:21.107Z,98858.06
2023-01-11T04:18:23.905Z,98850.31
2023-01-11T04:19:25.789Z,98854.56
2023-01-11T04:20:28.548Z,98850.31
2023-01-11T04:21:30.396Z,98857.22
2023-01-11T04:22:33.221Z,98858.06
2023-01-11T04:23:35.666Z,98853.72
2023-01-11T04:24:38.491Z,98854.56
2023-01-11T04:25:40.278Z,98849.38
2023-01-11T04:26:43.011Z,98851.03
2023-01-11T04:27:45.021Z,98850.16
2023-01-11T04:28:47.825Z,98848.41
2023-01-11T04:29:49.593Z,98850.16
2023-01-11T04:30:52.420Z,98854.41
2023-01-11T04:31:55.697Z,98847.56
2023-01-11T04:32:58.839Z,98845.00
2023-01-11T04:34:00.683Z,98841.56
2023-01-11T04:35:03.474Z,98849.38
2023-01-11T04:36:06.342Z,98847.72
2023-01-11T04:37:09.523Z,98843.38
2023-01-11T04:38:11.532Z,98844.22
2023-01-11T04:39:14.463Z,98840.72
2023-01-11T04:40:16.978Z,98844.06
2023-01-11T04:41:37.268Z,98851.00
2023-01-11T04:42:40.268Z,98851.97
2023-01-11T04:43:42.376Z,98847.63
2023-01-11T04:44:45.480Z,98845.06
2023-01-11T04:45:48.240Z,98848.47
2023-01-11T04:46:50.294Z,98845.06
2023-01-11T04:47:56.730Z,98839.06
2023-01-11T04:48:58.976Z,98838.22
2023-01-11T04:50:02.163Z,98844.22
2023-01-11T04:51:04.287Z,98850.16
2023-01-11T04:52:07.103Z,98838.91
2023-01-11T04:53:08.874Z,98838.81
2023-01-11T04:54:11.620Z,98837.97
2023-01-11T04:55:13.413Z,98832.91
2023-01-11T04:56:16.827Z,98835.56
2023-01-11T04:57:18.641Z,98832.22
2023-01-11T04:58:21.800Z,98833.25
2023-01-11T04:59:23.861Z,98835.91
2023-01-11T05:00:26.618Z,98835.91
2023-01-11T05:01:28.460Z,98841.81
2023-01-11T05:02:31.304Z,98835.72
2023-01-11T05:03:34.632Z,98828.91
2023-01-11T05:04:37.465Z,98825.41
2023-01-11T05:05:39.301Z,98822.00
2023-01-11T05:06:43.073Z,98820.25
2023-01-11T05:07:44.919Z,98814.16
2023-01-11T05:08:48.337Z,98811.47
2023-01-11T05:09:51.148Z,98812.31
2023-01-11T05:10:53.513Z,98812.25
2023-01-11T05:11:56.275Z,98814.88
2023-01-11T05:12:58.039Z,98817.47
2023-01-11T05:14:00.854Z,98815.81
2023-01-11T05:15:02.702Z,98815.75
2023-01-11T05:16:06.180Z,98811.47
2023-01-11T05:17:08.948Z,98814.88
2023-01-11T05:18:11.107Z,98814.88
2023-01-11T05:19:15.182Z,98814.88
2023-01-11T05:20:17.216Z,98814.88
2023-01-11T05:21:20.905Z,98822.72
2023-01-11T05:22:22.687Z,98814.25
2023-01-11T05:23:25.399Z,98809.91
2023-01-11T05:24:28.157Z,98809.16
2023-01-11T05:25:29.942Z,98816.91
2023-01-11T05:26:35.080Z,98812.59
2023-01-11T05:27:36.960Z,98810.91
2023-01-11T05:28:39.849Z,98811.75
2023-01-11T05:29:41.621Z,98816.91
2023-01-11T05:30:44.751Z,98810.91
2023-01-11T05:31:46.898Z,98808.25
2023-01-11T05:32:49.762Z,98809.06
2023-01-11T05:33:51.961Z,98809.06
2023-01-11T05:34:56.056Z,98810.75
2023-01-11T05:35:58.961Z,98811.66
2023-01-11T05:37:02.063Z,98821.16
2023-01-11T05:38:03.905Z,98816.91
2023-01-11T05:39:06.958Z,98814.34
2023-01-11T05:40:10.031Z,98810.91
2023-01-11T05:41:14.903Z,98809.16
2023-01-11T05:42:17.687Z,98806.66
2023-01-11T05:43:19.488Z,98805.72
2023-01-11T05:44:39.703Z,98803.25
2023-01-11T05:45:41.520Z,98797.34
2023-01-11T05:46:45.349Z,98796.41
2023-01-11T05:47:47.117Z,98799.81
2023-01-11T05:48:50.328Z,98799.81
2023-01-11T05:49:52.373Z,98799.72
2023-01-11T05:50:57.242Z,98800.56
2023-01-11T05:51:59.073Z,98799.72
2023-01-11T05:53:02.153Z,98801.34
2023-01-11T05:54:05.544Z,98795.34
2023-01-11T05:55:09.545Z,98801.25
2023-01-11T05:56:11.867Z,98797.72
2023-01-11T05:57:14.772Z,98798.56
2023-01-11T05:58:16.558Z,98796.81
2023-01-11T05:59:19.407Z,98796.75
2023-01-11T06:00:22.015Z,98797.47
2023-01-11T06:01:26.202Z,98791.38
2023-01-11T06:02:28.278Z,98793.16
2023-01-11T06:03:31.102Z,98788.91
2023-01-11T06:04:32.954Z,98792.41
2023-01-11T06:05:36.006Z,98783.88
2023-01-11T06:06:42.704Z,98784.09
2023-01-11T06:07:44.889Z,98792.81
2023-01-11T06:08:48.077Z,98785.25
2023-01-11T06:09:49.843Z,98789.75
2023-01-11T06:10:53.057Z,98785.59
2023-01-11T06:11:56.297Z,98788.25
2023-01-11T06:13:13.024Z,98797.09
2023-01-11T06:14:15.892Z,98799.94
2023-01-11T06:15:17.702Z,98787.91
2023-01-11T06:16:22.097Z,98787.25
2023-01-11T06:17:23.888Z,98787.41
2023-01-11T06:18:27.016Z,98787.59
2023-01-11T06:19:28.786Z,98786.09
2023-01-11T06:20:31.527Z,98779.44
2023-01-11T06:21:35.578Z,98781.44
2023-01-11T06:22:38.758Z,98787.66
2023-01-11T06:23:42.935Z,98793.91
2023-01-11T06:24:45.782Z,98796.75
2023-01-11T06:25:47.677Z,98802.06
2023-01-11T06:26:53.258Z,98793.63
2023-01-11T06:27:55.141Z,98803.34
2023-01-11T06:28:57.988Z,98798.38
2023-01-11T06:29:59.783Z,98802.03
2023-01-11T06:31:02.854Z,98799.53
2023-01-11T06:32:06.131Z,98800.50
2023-01-11T06:33:08.167Z,98795.44
2023-01-11T06:34:11.573Z,98794.59
2023-01-11T06:35:13.443Z,98801.53
2023-01-11T06:36:16.576Z,98802.34
2023-01-11T06:37:18.602Z,98795.44
2023-01-11T06:38:24.270Z,98798.84
2023-01-11T06:39:27.144Z,98792.88
2023-01-11T06:40:29.519Z,98798.03
2023-01-11T06:41:32.525Z,98797.09
2023-01-11T06:42:34.344Z,98797.94
2023-01-11T06:43:38.170Z,98795.34
2023-01-11T06:44:39.994Z,98799.53
2023-01-11T06:45:45.563Z,98805.53
2023-01-11T06:46:48.642Z,98796.03
2023-01-11T06:47:51.602Z,98807.19
2023-01-11T06:48:53.453Z,98799.34
2023-01-11T06:49:56.485Z,98806.25
2023-01-11T06:50:58.779Z,98797.56
2023-01-11T06:52:01.510Z,98807.78
2023-01-11T06:53:03.439Z,98812.03
2023-01-11T06:54:07.671Z,98806.84
2023-01-11T06:55:10.405Z,98804.28
2023-01-11T06:56:15.056Z,98808.47
2023-01-11T06:57:16.929Z,98804.03
2023-01-11T06:58:19.807Z,98804.78
2023-01-11T06:59:22.653Z,98808.03
2023-01-11T07:00:25.342Z,98802.78
2023-01-11T07:01:30.386Z,98809.47
2023-01-11T07:02:32.869Z,98801.72
2023-01-11T07:03:35.620Z,98807.56
2023-01-11T07:04:37.431Z,98802.22
2023-01-11T07:05:56.941Z,98799.63
2023-01-11T07:06:59.103Z,98805.56
2023-01-11T07:08:14.062Z,98807.09
2023-01-11T07:09:35.353Z,98807.09
2023-01-11T07:10:51.344Z,98803.50
2023-01-11T07:12:14.384Z,98806.91
2023-01-11T07:13:34.120Z,98805.25
2023-01-11T07:14:54.035Z,98804.41
2023-01-11T07:16:11.320Z,98807.09
2023-01-11T07:17:33.118Z,98803.59
2023-01-11T07:18:51.219Z,98794.31
2023-01-11T07:20:14.623Z,98794.31
2023-01-11T07:21:34.077Z,98796.00
2023-01-11T07:22:51.708Z,98791.66
2023-01-11T07:24:14.144Z,98786.50
2023-01-11T07:25:32.632Z,98795.94
2023-01-11T07:26:41.038Z,98790.69
2023-01-11T07:27:42.837Z,98790.69
2023-01-11T07:28:46.947Z,98803.59
2023-01-11T07:29:48.690Z,98787.25
2023-01-11T07:30:58.847Z,98788.91
2023-01-11T07:32:01.279Z,98783.84
2023-01-11T07:33:06.316Z,98784.75
2023-01-11T07:34:09.822Z,98786.44
2023-01-11T07:35:12.042Z,98786.50
2023-01-11T07:36:14.816Z,98785.75
2023-01-11T07:37:28.526Z,98783.41
2023-01-11T07:38:32.166Z,98780.16
2023-01-11T07:39:43.108Z,98791.59
2023-01-11T07:40:47.829Z,98787.50
2023-01-11T07:42:08.142Z,98779.81
2023-01-11T07:43:14.162Z,98780.00
2023-01-11T07:44:17.110Z,98774.97
2023-01-11T07:45:19.244Z,98778.47
2023-01-11T07:46:22.093Z,98779.31
2023-01-11T07:47:23.881Z,98770.59
2023-01-11T07:48:27.707Z,98772.94
2023-01-11T07:49:29.695Z,98769.34
2023-01-11T07:50:32.621Z,98758.94
2023-01-11T07:51:34.889Z,98766.59
2023-01-11T07:52:37.632Z,98770.75
2023-01-11T07:53:40.433Z,98760.28
2023-01-11T07:54:42.295Z,98765.44
2023-01-11T07:55:45.055Z,98768.75
2023-01-11T07:56:49.216Z,98774.69
2023-01-11T07:57:51.260Z,98769.44
2023-01-11T07:58:54.026Z,98764.28
2023-01-11T07:59:55.761Z,98763.25
2023-01-11T08:01:00.307Z,98763.13
2023-01-11T08:02:02.111Z,98763.84
2023-01-11T08:03:05.353Z,98750.78
2023-01-11T08:04:08.442Z,98758.28
2023-01-11T08:05:11.286Z,98758.09
2023-01-11T08:06:14.537Z,98761.50
2023-01-11T08:07:16.381Z,98758.94
2023-01-11T08:08:19.335Z,98760.63
2023-01-11T08:09:21.108Z,98763.84
2023-01-11T08:10:24.153Z,98755.94
2023-01-11T08:11:44.597Z,98761.00
2023-01-11T08:13:06.914Z,98768.75
2023-01-11T08:14:29.212Z,98765.94
2023-01-11T08:15:32.338Z,98769.84
2023-01-11T08:16:34.157Z,98767.00
2023-01-11T08:17:38.935Z,98767.56
2023-01-11T08:18:40.714Z,98767.41
2023-01-11T08:19:44.264Z,98764.56
2023-01-11T08:20:47.609Z,98764.38
2023-01-11T08:21:49.958Z,98767.53
2023-01-11T08:22:53.052Z,98763.22
2023-01-11T08:23:55.552Z,98765.16
2023-01-11T08:24:58.325Z,98762.72
2023-01-11T08:26:04.044Z,98764.56
2023-01-11T08:27:06.904Z,98762.91
2023-01-11T08:28:13.138Z,98756.00
2023-01-11T08:29:15.455Z,98758.47
2023-01-11T08:30:19.069Z,98760.06
2023-01-11T08:31:21.442Z,98764.22
2023-01-11T08:32:24.279Z,98763.13
2023-01-11T08:33:26.172Z,98762.22
2023-01-11T08:34:29.183Z,98760.34
2023-01-11T08:35:31.580Z,98757.78
2023-01-11T08:36:34.417Z,98761.22
2023-01-11T08:37:37.186Z,98759.63
2023-01-11T08:38:39.778Z,98766.63
2023-01-11T08:39:43.204Z,98768.47
2023-01-11T08:40:45.040Z,98765.25
2023-01-11T08:41:47.846Z,98760.13
2023-01-11T08:42:50.836Z,98761.16
2023-01-11T08:43:54.961Z,98757.75
2023-01-11T08:44:57.695Z,98756.97
2023-01-11T08:45:59.954Z,98752.56
2023-01-11T08:47:03.087Z,98757.56
2023-01-11T08:48:06.203Z,98754.72
2023-01-11T08:49:12.228Z,98751.03
2023-01-11T08:50:16.283Z,98751.72
2023-01-11T08:51:18.169Z,98751.50
2023-01-11T08:52:39.208Z,98752.28
2023-01-11T08:53:40.992Z,98754.03
2023-01-11T08:54:44.042Z,98763.44
2023-01-11T08:55:47.793Z,98760.84
2023-01-11T08:56:50.592Z,98758.00
2023-01-11T08:57:53.378Z,98760.31
2023-01-11T08:58:56.595Z,98761.63
2023-01-11T08:59:59.581Z,98761.19
2023-01-11T09:01:03.763Z,98759.25
2023-01-11T09:02:07.654Z,98760.00
2023-01-11T09:03:11.795Z,98760.84
2023-01-11T09:04:24.212Z,98757.41
2023-01-11T09:05:28.404Z,98754.09
2023-01-11T09:06:30.252Z,98760.28
2023-01-11T09:07:33.001Z,98759.44
2023-01-11T09:08:35.234Z,98753.34
2023-01-11T09:09:37.970Z,98759.34
2023-01-11T09:10:39.771Z,98760.91
2023-01-11T09:11:58.858Z,98756.41
2023-01-11T09:13:01.091Z,98758.91
2023-01-11T09:14:05.364Z,98761.41
2023-01-11T09:15:09.680Z,98768.97
2023-01-11T09:16:11.557Z,98756.81
2023-01-11T09:17:14.391Z,98761.78
2023-01-11T09:18:16.260Z,98768.53
2023-01-11T09:19:19.063Z,98756.44
2023-01-11T09:20:22.185Z,98764.75
2023-01-11T09:21:24.882Z,98760.22
2023-01-11T09:22:27.850Z,98765.94
2023-01-11T09:23:29.588Z,98757.19
2023-01-11T09:24:32.700Z,98747.56
2023-01-11T09:25:34.619Z,98758.69
2023-01-11T09:26:38.329Z,98756.97
2023-01-11T09:27:44.000Z,98751.19
2023-01-11T09:28:45.890Z,98754.78
2023-01-11T09:29:50.130Z,98760.69
2023-01-11T09:30:53.499Z,98756.25
2023-01-11T09:31:56.433Z,98749.31
2023-01-11T09:32:58.350Z,98748.59
2023-01-11T09:34:01.278Z,98751.47
2023-01-11T09:35:04.595Z,98745.63
2023-01-11T09:36:08.559Z,98743.97
2023-01-11T09:37:11.575Z,98743.88
2023-01-11T09:38:13.325Z,98741.09
2023-01-11T09:39:18.812Z,98741.78
2023-01-11T09:40:23.198Z,98737.97
2023-01-11T09:41:38.732Z,98742.03
2023-01-11T09:42:43.448Z,98746.28
2023-01-11T09:43:50.755Z,98748.50
2023-01-11T09:44:58.982Z,98745.53
2023-01-11T09:46:06.756Z,98745.06
2023-01-11T09:47:14.730Z,98743.13
2023-01-11T09:48:26.981Z,98743.78
2023-01-11T09:49:32.594Z,98750.50
2023-01-11T09:50:40.005Z,98749.59
2023-01-11T09:51:42.397Z,98747.63
2023-01-11T09:52:47.456Z,98745.41
2023-01-11T09:53:52.415Z,98741.34
2023-01-11T09:54:54.545Z,98738.25
2023-01-11T09:55:59.669Z,98737.13
2023-01-11T09:57:10.559Z,98737.03
2023-01-11T09:58:30.937Z,98728.34
2023-01-11T09:59:42.534Z,98728.16
2023-01-11T10:00:54.253Z,98727.13
2023-01-11T10:02:03.578Z,98726.94
2023-01-11T10:03:31.273Z,98731.81
2023-01-11T10:04:58.526Z,98731.53
2023-01-11T10:06:09.048Z,98728.66
2023-01-11T10:07:24.946Z,98729.66
2023-01-11T10:18:25.525Z,98712.19
2023-01-11T10:18:31.357Z,98712.91
2023-01-11T10:18:34.255Z,98716.31
2023-01-11T10:19:41.347Z,98710.41
2023-01-11T10:20:47.536Z,98703.28
2023-01-11T10:21:54.668Z,98696.78
2023-01-11T10:23:00.798Z,98697.97
2023-01-11T10:24:07.373Z,98698.38
2023-01-11T10:25:18.659Z,98691.16
2023-01-11T10:26:27.560Z,98688.66
2023-01-11T10:27:34.378Z,98687.09
2023-01-11T10:28:43.225Z,98677.53
2023-01-11T10:30:08.317Z,98677.75
2023-01-11T10:31:29.876Z,98677.97
2023-01-11T10:32:54.131Z,98678.25
2023-01-11T10:34:18.570Z,98680.13
2023-01-11T10:35:41.167Z,98686.66
2023-01-11T10:37:04.832Z,98676.63
2023-01-11T10:38:30.814Z,98674.56
2023-01-11T10:39:55.555Z,98676.84
2023-01-11T10:41:08.304Z,98672.84
2023-01-11T10:42:16.703Z,98672.38
2023-01-11T10:43:21.837Z,98665.19
2023-01-11T10:44:31.801Z,98674.63
2023-01-11T10:45:38.449Z,98664.78
2023-01-11T10:46:45.168Z,98655.88
2023-01-11T10:47:56.451Z,98655.56
2023-01-11T10:49:04.735Z,98658.06
2023-01-11T10:50:15.699Z,98662.22
2023-01-11T10:51:40.802Z,98654.34
2023-01-11T10:52:47.925Z,98655.91
2023-01-11T10:53:59.776Z,98644.59
2023-01-11T10:55:12.788Z,98646.97
2023-01-11T10:56:23.162Z,98643.22
2023-01-11T10:57:39.815Z,98645.41
2023-01-11T10:59:15.705Z,98643.53
2023-01-11T11:00:22.658Z,98640.66
2023-01-11T11:01:50.258Z,98642.94
2023-01-11T11:03:22.630Z,98636.69
2023-01-11T11:04:37.406Z,98636.16
2023-01-11T11:05:43.944Z,98642.59
2023-01-11T11:06:55.293Z,98645.41
2023-01-11T11:08:02.919Z,98639.69
2023-01-11T11:09:13.110Z,98645.94
2023-01-11T11:10:21.741Z,98633.16
2023-01-11T11:11:31.654Z,98634.09
2023-01-11T11:12:41.573Z,98640.03
2023-01-11T11:13:50.607Z,98629.66
2023-01-11T11:14:59.740Z,98633.59
2023-01-11T11:16:05.222Z,98627.97
2023-01-11T11:17:16.332Z,98637.31
2023-01-11T11:18:19.452Z,98625.28
2023-01-11T11:19:25.681Z,98624.66
2023-01-11T11:20:31.477Z,98624.88
2023-01-11T11:21:37.407Z,98621.53
2023-01-11T11:22:40.398Z,98619.06
2023-01-11T11:23:42.957Z,98616.69
2023-01-11T11:24:50.472Z,98617.84
2023-01-11T11:25:57.889Z,98616.50
2023-01-11T11:27:04.418Z,98616.69
2023-01-11T11:28:09.130Z,98613.47
2023-01-11T11:29:12.984Z,98613.56
2023-01-11T11:30:27.315Z,98608.28
2023-01-11T11:31:31.193Z,98612.44
2023-01-11T11:32:37.135Z,98608.72
2023-01-11T11:33:41.228Z,98614.41
2023-01-11T11:34:48.232Z,98604.56
2023-01-11T11:35:57.101Z,98600.09
2023-01-11T11:37:01.613Z,98600.09
2023-01-11T11:38:04.775Z,98598.31
2023-01-11T11:39:11.073Z,98600.59
2023-01-11T11:40:29.406Z,98591.44
2023-01-11T11:41:46.413Z,98588.09
2023-01-11T11:42:49.254Z,98589.56
2023-01-11T11:43:52.012Z,98592.78
2023-01-11T11:45:12.676Z,98595.16
2023-01-11T11:46:24.246Z,98595.56
2023-01-11T11:47:26.971Z,98588.97
2023-01-11T11:48:31.362Z,98586.56
2023-01-11T11:49:34.819Z,98590.88
2023-01-11T11:50:46.153Z,98589.06
2023-01-11T11:51:49.500Z,98592.53
2023-01-11T11:52:54.662Z,98592.94
2023-01-11T11:53:57.835Z,98595.91
2023-01-11T11:55:00.732Z,98593.06
2023-01-11T11:56:08.979Z,98592.72
2023-01-11T11:57:16.995Z,98593.34
2023-01-11T11:58:21.238Z,98587.94
2023-01-11T11:59:26.689Z,98586.63
2023-01-11T12:00:31.193Z,98585.44
2023-01-11T12:01:35.473Z,98585.22
2023-01-11T12:02:44.992Z,98583.81
2023-01-11T12:03:48.834Z,98582.28
2023-01-11T12:04:52.095Z,98590.16
2023-01-11T12:05:58.624Z,98582.72
2023-01-11T12:07:09.387Z,98585.22
2023-01-11T12:08:15.777Z,98580.22
2023-01-11T12:09:25.443Z,98581.88
2023-01-11T12:10:29.225Z,98574.81
2023-01-11T12:11:34.992Z,98578.34
2023-01-11T12:12:50.165Z,98581.16
2023-01-11T12:14:02.942Z,98575.59
2023-01-11T12:15:19.614Z,98563.66
2023-01-11T12:16:23.639Z,98569.81
2023-01-11T12:17:27.377Z,98567.19
2023-01-11T12:18:33.197Z,98561.06
2023-01-11T12:19:41.188Z,98576.44
2023-01-11T12:20:44.760Z,98566.66
2023-01-11T12:21:48.858Z,98573.25
2023-01-11T12:23:09.917Z,98568.88
2023-01-11T12:24:17.266Z,98574.19
2023-01-11T12:25:21.941Z,98570.06
2023-01-11T12:26:27.629Z,98572.75
2023-01-11T12:27:38.019Z,98569.34
2023-01-11T12:29:18.391Z,98566.88
2023-01-11T12:30:25.511Z,98565.09
2023-01-11T12:31:33.664Z,98562.16
2023-01-11T12:33:03.216Z,98562.84
2023-01-11T12:34:11.627Z,98563.81
2023-01-11T12:35:36.652Z,98557.19
2023-01-11T12:36:46.512Z,98556.81
2023-01-11T12:38:05.977Z,98551.88
2023-01-11T12:39:16.843Z,98551.38
2023-01-11T12:40:24.243Z,98547.22
2023-01-11T12:41:47.964Z,98546.84
2023-01-11T12:43:02.285Z,98541.97
2023-01-11T12:44:05.636Z,98535.34
2023-01-11T12:45:17.587Z,98536.50
2023-01-11T12:46:26.127Z,98536.25
2023-01-11T12:47:48.203Z,98533.16
2023-01-11T12:49:05.517Z,98521.22
2023-01-11T12:50:12.823Z,98523.81
2023-01-11T12:51:25.377Z,98523.00
2023-01-11T12:52:52.592Z,98520.72
2023-01-11T12:54:04.568Z,98525.53
2023-01-11T12:55:20.556Z,98521.38
2023-01-11T12:56:33.532Z,98522.44
2023-01-11T12:57:46.333Z,98519.22
2023-01-11T12:58:53.034Z,98513.34
2023-01-11T13:00:20.003Z,98518.53
2023-01-11T13:01:36.400Z,98513.34
2023-01-11T13:03:03.643Z,98509.91
2023-01-11T13:04:42.263Z,98510.75
2023-01-11T13:05:54.892Z,98512.50
2023-01-11T13:07:03.815Z,98512.41
2023-01-11T13:08:13.691Z,98510.41
2023-01-11T13:09:27.050Z,98510.28
2023-01-11T13:10:36.481Z,98509.25
2023-01-11T13:11:48.663Z,98504.06
2023-01-11T13:12:57.671Z,98505.09
2023-01-11T13:14:07.058Z,98506.06
2023-01-11T13:15:21.026Z,98510.41
2023-01-11T13:16:26.525Z,98506.06
2023-01-11T13:17:36.126Z,98514.66
2023-01-11T13:18:42.106Z,98502.72
2023-01-11T13:19:49.820Z,98504.50
2023-01-11T13:21:03.593Z,98505.31
2023-01-11T13:22:13.684Z,98505.44
2023-01-11T13:23:20.218Z,98495.06
2023-01-11T13:24:27.263Z,98501.41
2023-01-11T13:25:33.703Z,98501.75
2023-01-11T13:26:38.565Z,98494.06
2023-01-11T13:27:41.222Z,98490.03
2023-01-11T13:28:45.597Z,98492.03
2023-01-11T13:29:50.312Z,98481.84
2023-01-11T13:30:53.252Z,98484.56
2023-01-11T13:31:58.797Z,98480.41
2023-01-11T13:33:06.012Z,98476.28
2023-01-11T13:34:16.194Z,98483.56
2023-01-11T13:35:20.267Z,98474.22
2023-01-11T13:36:27.874Z,98471.88
2023-01-11T13:37:54.811Z,98476.44
2023-01-11T13:39:00.199Z,98473.03
2023-01-11T13:40:10.405Z,98468.03
2023-01-11T13:41:17.583Z,98476.88
2023-01-11T13:42:23.207Z,98470.13